Winkle, Illinois
Current Conditions -  °F | °C
As of 12:35 AM on Friday 31 Oct 2014 (Local Time) from KSAR Reporting Station
Haze Haze  
Wind Chill: 47°   Ceiling: 10000
Heat Index: 47°   Visibility: 3mi
Dew Point: 46°   Wind: 0mph
Humidity: 99%   Direction: NA
Pressure: 30.04"   Gusts: NA
Location:  38.1705°N, 89.5556°W
Report Text: KSAR 310535Z AUTO 00000KT 3SM BR SCT043 SCT075 BKN100 08/08 A3004 RMK AO2 T00820080
Loading
Personal Weather Stations






























Interactive Weather Map
Tropical Storm Tracking
New forecast layout! Learn more

10-Day Weather Forecast

Advertisements
Track Severe Weather on mobile